Ora Direzione Vento Velocita' Vento Media Vento Raffica Max. Temperatura Wind Chill Pioggia Pressione
21:01:56.0224 °(SW)1.7 Kts1.7 Kts17.4 Kts5.6 °C5.6 °C0.0 mm978.7 Hpa
20:40:33.0204 °(SSW)1.7 Kts1.7 Kts17.4 Kts5.5 °C5.5 °C0.0 mm978.3 Hpa
20:20:49.0203 °(SSW)3.5 Kts1.7 Kts17.4 Kts6.2 °C6.2 °C0.0 mm978.0 Hpa
20:01:14.0233 °(SW)0.0 Kts0.0 Kts17.4 Kts6.7 °C6.7 °C0.0 mm977.9 Hpa
19:41:28.0230 °(SW)0.0 Kts0.0 Kts17.4 Kts6.8 °C6.8 °C0.0 mm977.6 Hpa
19:21:33.0221 °(SW)0.0 Kts0.0 Kts17.4 Kts6.9 °C6.9 °C0.0 mm977.2 Hpa
19:01:39.0232 °(SW)0.0 Kts0.0 Kts17.4 Kts7.2 °C7.2 °C0.0 mm977.0 Hpa
18:41:52.0233 °(SW)0.0 Kts0.0 Kts17.4 Kts7.1 °C7.1 °C0.0 mm976.7 Hpa
18:20:32.0160 °(SSE)0.0 Kts0.0 Kts17.4 Kts7.5 °C7.5 °C0.0 mm976.6 Hpa
18:00:38.071 °(ENE)0.0 Kts0.0 Kts17.4 Kts7.7 °C7.7 °C0.0 mm976.5 Hpa
17:40:46.071 °(ENE)0.0 Kts0.0 Kts17.4 Kts8.2 °C8.2 °C0.0 mm976.3 Hpa
17:20:41.072 °(ENE)0.9 Kts0.9 Kts17.4 Kts8.4 °C8.4 °C0.0 mm975.9 Hpa
17:01:35.025 °(NNE)0.0 Kts0.0 Kts17.4 Kts8.3 °C8.3 °C0.0 mm975.7 Hpa
16:41:37.023 °(NNE)0.0 Kts0.9 Kts17.4 Kts8.6 °C8.6 °C0.0 mm975.2 Hpa
16:21:23.0330 °(NNW)0.0 Kts0.9 Kts17.4 Kts8.7 °C8.7 °C0.0 mm975.0 Hpa
16:01:20.0316 °(NW)1.7 Kts2.6 Kts17.4 Kts8.6 °C8.6 °C0.0 mm974.7 Hpa
15:41:11.0310 °(NW)2.6 Kts2.6 Kts17.4 Kts8.6 °C8.6 °C0.0 mm974.4 Hpa
15:20:50.0319 °(NW)3.5 Kts5.2 Kts17.4 Kts8.5 °C6.3 °C0.0 mm974.6 Hpa
15:00:47.0312 °(NW)7.0 Kts7.0 Kts17.4 Kts8.4 °C4.3 °C0.0 mm974.4 Hpa
14:40:30.0314 °(NW)7.0 Kts7.8 Kts17.4 Kts8.3 °C3.3 °C0.0 mm974.2 Hpa